Albert J Ellis Airport Jacksonville US
ICAO: KOAJ
IATA: OAJ
Category: Medium
Scheduled Services: No

Elevation: 94 ft
TransAlt. 18000 ft.

Airport Communications:
WILMINGTON APP/DEP:121.4
AWOS 3:124.475
CTAF/UNICOM:123

KOAJ Zoom In..

If Map Doesn't Load, Click Here

Runways:

(A) RW 05 length 7100 ft width 150 ft
ILS 108.70 / hdg 52

(B) RW 23 length 7100 ft width 150 ft
---- / hdg 232

Location; KOAJ
Day. 23 / Time. 20.56 Zulu
* Altimeter: 30.06
* Temperature: 29° c. 84.2°f.
* Wind from: VRB° Speed 04 kn.
Dewpoint: 19° c.
Visibility: 10 Statute Miles.
Clouds: Scattered 4900 ft.
Clouds: Broken 6000 ft.
Clouds: Overcast 8000 ft.

KOAJ 232056Z AUTO VRB04KT 10SM SCT049 BKN060 OVC080 29/19 A3006 RMK AO2 SLP182 T02940194 56011


Wind From VRB°
Speed 04 kn.

 
 
jpsmedia.com for Web Design worldairports.se 2018   terms of use